createdAt,value
2019-03-16T00:00:02.389Z,994.71
2019-03-16T00:01:02.398Z,994.65
2019-03-16T00:02:02.361Z,994.81
2019-03-16T00:03:02.351Z,994.76
2019-03-16T00:04:02.339Z,994.76
2019-03-16T00:05:02.367Z,994.91
2019-03-16T00:06:02.333Z,994.75
2019-03-16T00:07:02.309Z,994.88
2019-03-16T00:08:02.306Z,995.01
2019-03-16T00:09:02.283Z,994.94
2019-03-16T00:10:02.276Z,995.05
2019-03-16T00:11:02.283Z,995.06
2019-03-16T00:12:02.405Z,995.01
2019-03-16T00:13:02.275Z,995.08
2019-03-16T00:14:02.234Z,994.99
2019-03-16T00:15:02.257Z,994.93
2019-03-16T00:16:02.230Z,995.09
2019-03-16T00:17:02.194Z,995.09
2019-03-16T00:18:02.191Z,995.07
2019-03-16T00:19:02.171Z,995.04
2019-03-16T00:20:02.170Z,994.96
2019-03-16T00:21:02.185Z,995.05
2019-03-16T00:22:02.170Z,995.19
2019-03-16T00:23:02.159Z,995.11
2019-03-16T00:24:02.115Z,995.17
2019-03-16T00:25:02.104Z,995.08
2019-03-16T00:26:02.104Z,995.18
2019-03-16T00:27:02.087Z,995.18
2019-03-16T00:28:02.084Z,995.10
2019-03-16T00:29:02.105Z,995.13
2019-03-16T00:30:02.064Z,995.17
2019-03-16T00:31:02.039Z,995.21
2019-03-16T00:32:12.789Z,995.25
2019-03-16T00:33:03.061Z,995.35
2019-03-16T00:34:02.009Z,995.28
2019-03-16T00:35:02.046Z,995.37
2019-03-16T00:36:01.985Z,995.39
2019-03-16T00:37:01.992Z,995.47
2019-03-16T00:38:01.981Z,995.48
2019-03-16T00:39:01.970Z,995.45
2019-03-16T00:40:01.980Z,995.48
2019-03-16T00:41:01.934Z,995.46
2019-03-16T00:42:01.917Z,995.51
2019-03-16T00:43:01.908Z,995.46
2019-03-16T00:44:01.909Z,995.51
2019-03-16T00:45:01.931Z,995.46
2019-03-16T00:46:01.882Z,995.56
2019-03-16T00:47:01.898Z,995.50
2019-03-16T00:48:01.865Z,995.44
2019-03-16T00:49:01.907Z,995.61
2019-03-16T00:50:01.845Z,995.59
2019-03-16T00:51:01.866Z,995.50
2019-03-16T00:52:01.820Z,995.57
2019-03-16T00:53:01.818Z,995.57
2019-03-16T00:54:01.792Z,995.60
2019-03-16T00:55:01.794Z,995.69
2019-03-16T00:56:01.818Z,995.64
2019-03-16T00:57:01.780Z,995.51
2019-03-16T00:58:01.753Z,995.67
2019-03-16T00:59:01.872Z,995.67
2019-03-16T01:00:01.725Z,995.58
2019-03-16T01:01:01.743Z,995.66
2019-03-16T01:02:01.839Z,995.76
2019-03-16T01:03:01.733Z,995.70
2019-03-16T01:04:01.689Z,995.65
2019-03-16T01:05:01.671Z,995.62
2019-03-16T01:06:01.665Z,995.80
2019-03-16T01:07:01.648Z,995.64
2019-03-16T01:08:01.681Z,995.67
2019-03-16T01:09:01.649Z,995.81
2019-03-16T01:10:01.626Z,995.77
2019-03-16T01:11:01.614Z,995.76
2019-03-16T01:12:01.595Z,995.86
2019-03-16T01:13:01.587Z,995.83
2019-03-16T01:14:01.594Z,995.83
2019-03-16T01:15:01.584Z,995.88
2019-03-16T01:16:01.550Z,995.81
2019-03-16T01:17:01.537Z,995.89
2019-03-16T01:18:01.553Z,995.92
2019-03-16T01:19:01.529Z,995.92
2019-03-16T01:20:01.535Z,995.93
2019-03-16T01:21:01.503Z,995.99
2019-03-16T01:22:01.491Z,995.93
2019-03-16T01:23:01.475Z,995.91
2019-03-16T01:24:01.471Z,996.01
2019-03-16T01:25:01.476Z,996.10
2019-03-16T01:26:01.441Z,996.12
2019-03-16T01:27:01.431Z,996.02
2019-03-16T01:28:01.418Z,995.96
2019-03-16T01:29:01.405Z,995.97
2019-03-16T01:30:01.449Z,995.97
2019-03-16T01:31:01.389Z,996.03
2019-03-16T01:32:01.389Z,996.20
2019-03-16T01:33:01.372Z,996.17
2019-03-16T01:34:01.356Z,996.10
2019-03-16T01:35:01.351Z,996.09
2019-03-16T01:36:01.373Z,996.07
2019-03-16T01:37:01.327Z,996.11
2019-03-16T01:38:01.333Z,996.11
2019-03-16T01:39:01.299Z,996.03
2019-03-16T01:40:01.318Z,996.17
2019-03-16T01:41:01.276Z,996.16
2019-03-16T01:42:01.319Z,996.21
2019-03-16T01:43:01.266Z,996.20
2019-03-16T01:44:01.267Z,996.28
2019-03-16T01:45:01.265Z,996.25
2019-03-16T01:46:01.226Z,996.24
2019-03-16T01:47:01.242Z,996.25
2019-03-16T01:48:01.201Z,996.21
2019-03-16T01:49:01.199Z,996.20
2019-03-16T01:50:01.194Z,996.31
2019-03-16T01:51:01.175Z,996.40
2019-03-16T01:52:01.208Z,996.22
2019-03-16T01:53:01.146Z,996.22
2019-03-16T01:54:01.139Z,996.29
2019-03-16T01:55:01.154Z,996.19
2019-03-16T01:56:01.129Z,996.20
2019-03-16T01:57:01.109Z,996.29
2019-03-16T01:58:01.113Z,996.21
2019-03-16T01:59:01.100Z,996.24
2019-03-16T02:00:01.070Z,996.30
2019-03-16T02:01:01.064Z,996.23
2019-03-16T02:02:01.063Z,996.30
2019-03-16T02:03:01.077Z,996.29
2019-03-16T02:04:01.039Z,996.19
2019-03-16T02:05:01.024Z,996.35
2019-03-16T02:06:01.007Z,996.20
2019-03-16T02:07:00.990Z,996.43
2019-03-16T02:08:00.984Z,996.26
2019-03-16T02:09:00.996Z,996.35
2019-03-16T02:10:00.961Z,996.31
2019-03-16T02:11:00.955Z,996.31
2019-03-16T02:12:00.962Z,996.30
2019-03-16T02:13:00.927Z,996.28
2019-03-16T02:14:00.952Z,996.30
2019-03-16T02:15:00.922Z,996.29
2019-03-16T02:16:10.797Z,996.29
2019-03-16T02:17:01.887Z,996.50
2019-03-16T02:18:00.888Z,996.27
2019-03-16T02:19:00.892Z,996.42
2019-03-16T02:20:00.855Z,996.46
2019-03-16T02:21:00.844Z,996.46
2019-03-16T02:22:00.838Z,996.44
2019-03-16T02:23:00.826Z,996.47
2019-03-16T02:24:00.842Z,996.62
2019-03-16T02:25:00.801Z,996.55
2019-03-16T02:26:00.861Z,996.59
2019-03-16T02:27:00.793Z,996.63
2019-03-16T02:28:00.771Z,996.56
2019-03-16T02:29:00.770Z,996.67
2019-03-16T02:30:00.780Z,996.62
2019-03-16T02:31:00.733Z,996.52
2019-03-16T02:32:00.731Z,996.62
2019-03-16T02:33:12.785Z,996.68
2019-03-16T02:34:01.722Z,996.85
2019-03-16T02:35:00.723Z,996.85
2019-03-16T02:36:00.687Z,996.74
2019-03-16T02:37:00.682Z,996.72
2019-03-16T02:38:00.714Z,996.82
2019-03-16T02:39:00.688Z,996.84
2019-03-16T02:40:00.758Z,996.81
2019-03-16T02:41:00.642Z,996.96
2019-03-16T02:42:00.689Z,996.80
2019-03-16T02:43:00.630Z,996.85
2019-03-16T02:44:00.910Z,996.94
2019-03-16T02:45:00.617Z,996.97
2019-03-16T02:46:00.619Z,996.91
2019-03-16T02:47:00.593Z,996.98
2019-03-16T02:48:00.669Z,997.02
2019-03-16T02:49:00.588Z,997.00
2019-03-16T02:50:00.730Z,997.14
2019-03-16T02:51:00.666Z,997.07
2019-03-16T02:52:00.516Z,997.03
2019-03-16T02:53:00.547Z,997.09
2019-03-16T02:54:00.515Z,997.14
2019-03-16T02:55:00.639Z,997.23
2019-03-16T02:56:00.533Z,997.27
2019-03-16T02:57:00.586Z,997.21
2019-03-16T02:58:00.485Z,997.17
2019-03-16T02:59:00.477Z,997.15
2019-03-16T03:00:00.562Z,997.13
2019-03-16T03:01:00.433Z,997.29
2019-03-16T03:02:01.207Z,997.26
2019-03-16T03:03:00.411Z,997.40
2019-03-16T03:04:00.367Z,997.27
2019-03-16T03:05:00.695Z,997.29
2019-03-16T03:06:01.136Z,997.34
2019-03-16T03:07:00.397Z,997.30
2019-03-16T03:08:00.351Z,997.37
2019-03-16T03:09:00.341Z,997.43
2019-03-16T03:10:00.455Z,997.27
2019-03-16T03:11:00.323Z,997.25
2019-03-16T03:12:00.480Z,997.28
2019-03-16T03:13:00.312Z,997.26
2019-03-16T03:14:00.291Z,997.37
2019-03-16T03:15:00.703Z,997.33
2019-03-16T03:16:00.290Z,997.28
2019-03-16T03:17:00.229Z,997.35
2019-03-16T03:18:00.229Z,997.36
2019-03-16T03:19:00.209Z,997.46
2019-03-16T03:20:00.480Z,997.51
2019-03-16T03:21:00.197Z,997.41
2019-03-16T03:22:00.209Z,997.53
2019-03-16T03:23:00.171Z,997.51
2019-03-16T03:24:00.152Z,997.48
2019-03-16T03:25:00.354Z,997.43
2019-03-16T03:26:00.161Z,997.54
2019-03-16T03:27:00.182Z,997.56
2019-03-16T03:28:00.158Z,997.51
2019-03-16T03:29:09.202Z,997.55
2019-03-16T03:30:09.230Z,997.59
2019-03-16T03:31:00.073Z,997.61
2019-03-16T03:32:08.696Z,997.57
2019-03-16T03:33:00.074Z,997.67
2019-03-16T03:34:02.535Z,997.64
2019-03-16T03:35:00.034Z,997.70
2019-03-16T03:36:00.017Z,997.74
2019-03-16T03:37:00.002Z,997.71
2019-03-16T03:38:00.026Z,997.74
2019-03-16T03:38:59.989Z,997.86
2019-03-16T03:39:59.972Z,997.80
2019-03-16T03:41:01.924Z,997.80
2019-03-16T03:41:59.960Z,997.82
2019-03-16T03:42:59.971Z,997.83
2019-03-16T03:43:59.943Z,997.84
2019-03-16T03:44:59.945Z,997.91
2019-03-16T03:45:59.952Z,997.85
2019-03-16T03:46:59.907Z,997.85
2019-03-16T03:47:59.946Z,997.85
2019-03-16T03:48:59.908Z,997.84
2019-03-16T03:49:59.873Z,997.88
2019-03-16T03:50:59.859Z,997.86
2019-03-16T03:51:59.866Z,998.00
2019-03-16T03:52:59.877Z,997.97
2019-03-16T03:53:59.869Z,997.94
2019-03-16T03:54:59.931Z,997.94
2019-03-16T03:55:59.861Z,997.92
2019-03-16T03:56:59.809Z,997.97
2019-03-16T03:57:59.794Z,997.91
2019-03-16T03:58:59.781Z,998.00
2019-03-16T03:59:59.778Z,998.06
2019-03-16T04:00:59.786Z,997.99
2019-03-16T04:01:59.738Z,997.97
2019-03-16T04:02:59.727Z,998.06
2019-03-16T04:04:14.335Z,998.18
2019-03-16T04:05:00.725Z,998.10
2019-03-16T04:05:59.703Z,998.15
2019-03-16T04:06:59.718Z,998.12
2019-03-16T04:07:59.670Z,998.19
2019-03-16T04:08:59.661Z,998.14
2019-03-16T04:09:59.665Z,998.07
2019-03-16T04:10:59.684Z,998.30
2019-03-16T04:11:59.636Z,998.18
2019-03-16T04:12:59.623Z,998.16
2019-03-16T04:13:59.605Z,998.16
2019-03-16T04:14:59.652Z,998.17
2019-03-16T04:15:59.599Z,998.28
2019-03-16T04:16:59.585Z,998.26
2019-03-16T04:17:59.568Z,998.27
2019-03-16T04:18:59.558Z,998.36
2019-03-16T04:19:59.540Z,998.35
2019-03-16T04:20:59.562Z,998.30
2019-03-16T04:21:59.527Z,998.34
2019-03-16T04:22:59.507Z,998.35
2019-03-16T04:23:59.519Z,998.39
2019-03-16T04:24:59.493Z,998.49
2019-03-16T04:25:59.502Z,998.44
2019-03-16T04:27:14.636Z,998.56
2019-03-16T04:28:00.480Z,998.52
2019-03-16T04:28:59.458Z,998.55
2019-03-16T04:29:59.443Z,998.52
2019-03-16T04:30:59.430Z,998.51
2019-03-16T04:31:59.413Z,998.59
2019-03-16T04:32:59.423Z,998.62
2019-03-16T04:33:59.390Z,998.61
2019-03-16T04:34:59.379Z,998.66
2019-03-16T04:35:59.372Z,998.64
2019-03-16T04:36:59.359Z,998.55
2019-03-16T04:37:59.375Z,998.58
2019-03-16T04:38:59.370Z,998.61
2019-03-16T04:39:59.330Z,998.46
2019-03-16T04:40:59.321Z,998.52
2019-03-16T04:41:59.315Z,998.67
2019-03-16T04:42:59.291Z,998.59
2019-03-16T04:43:59.302Z,998.70
2019-03-16T04:44:59.271Z,998.63
2019-03-16T04:45:59.257Z,998.60
2019-03-16T04:46:59.240Z,998.67
2019-03-16T04:47:59.242Z,998.65
2019-03-16T04:48:59.252Z,998.66
2019-03-16T04:49:59.226Z,998.69
2019-03-16T04:50:59.211Z,998.63
2019-03-16T04:51:59.263Z,998.72
2019-03-16T04:52:59.178Z,998.68
2019-03-16T04:53:59.221Z,998.76
2019-03-16T04:54:59.159Z,998.82
2019-03-16T04:55:59.229Z,998.78
2019-03-16T04:56:59.155Z,998.84
2019-03-16T04:57:59.135Z,998.77
2019-03-16T04:58:59.123Z,998.88
2019-03-16T04:59:59.144Z,998.87
2019-03-16T05:00:59.108Z,998.82
2019-03-16T05:01:59.091Z,998.84
2019-03-16T05:02:59.077Z,998.84
2019-03-16T05:03:59.064Z,998.81
2019-03-16T05:04:59.084Z,998.92
2019-03-16T05:05:59.037Z,998.96
2019-03-16T05:06:59.059Z,998.94
2019-03-16T05:07:59.111Z,998.95
2019-03-16T05:08:59.011Z,998.89
2019-03-16T05:09:59.023Z,998.93
2019-03-16T05:10:59.014Z,999.00
2019-03-16T05:11:58.976Z,998.93
2019-03-16T05:12:58.960Z,998.90
2019-03-16T05:13:59.036Z,998.94
2019-03-16T05:14:58.954Z,998.91
2019-03-16T05:15:58.956Z,998.97
2019-03-16T05:16:58.917Z,998.92
2019-03-16T05:17:58.908Z,998.97
2019-03-16T05:18:58.902Z,999.01
2019-03-16T05:19:58.903Z,998.98
2019-03-16T05:20:58.912Z,998.99
2019-03-16T05:21:58.867Z,998.99
2019-03-16T05:22:58.881Z,999.01
2019-03-16T05:23:58.839Z,999.00
2019-03-16T05:24:58.831Z,999.14
2019-03-16T05:25:58.844Z,999.02
2019-03-16T05:26:58.827Z,999.08
2019-03-16T05:27:58.885Z,999.12
2019-03-16T05:28:58.794Z,999.11
2019-03-16T05:29:58.872Z,999.08
2019-03-16T05:30:58.919Z,999.03
2019-03-16T05:31:58.773Z,999.12
2019-03-16T05:32:58.761Z,999.12
2019-03-16T05:33:58.784Z,999.18
2019-03-16T05:34:58.812Z,999.22
2019-03-16T05:35:58.870Z,999.12
2019-03-16T05:36:58.789Z,999.22
2019-03-16T05:37:58.752Z,999.24
2019-03-16T05:38:58.674Z,999.20
2019-03-16T05:39:58.739Z,999.26
2019-03-16T05:40:58.718Z,999.25
2019-03-16T05:41:58.743Z,999.24
2019-03-16T05:42:58.673Z,999.27
2019-03-16T05:43:58.674Z,999.29
2019-03-16T05:44:58.609Z,999.37
2019-03-16T05:45:58.628Z,999.41
2019-03-16T05:46:58.711Z,999.42
2019-03-16T05:47:58.578Z,999.60
2019-03-16T05:48:58.574Z,999.54
2019-03-16T05:49:58.566Z,999.55
2019-03-16T05:50:58.553Z,999.53
2019-03-16T05:51:58.541Z,999.56
2019-03-16T05:52:58.550Z,999.58
2019-03-16T05:53:58.546Z,999.63
2019-03-16T05:54:58.501Z,999.60
2019-03-16T05:55:58.499Z,999.69
2019-03-16T05:56:58.571Z,999.62
2019-03-16T05:57:58.468Z,999.67
2019-03-16T05:58:58.482Z,999.62
2019-03-16T05:59:58.453Z,999.68
2019-03-16T06:00:58.433Z,999.68
2019-03-16T06:01:58.427Z,999.66
2019-03-16T06:02:58.419Z,999.67
2019-03-16T06:03:58.425Z,999.79
2019-03-16T06:05:09.881Z,999.76
2019-03-16T06:06:49.812Z,999.81
2019-03-16T06:07:49.800Z,999.83
2019-03-16T06:08:49.904Z,999.83
2019-03-16T06:09:49.821Z,999.76
2019-03-16T06:10:49.788Z,999.84
2019-03-16T06:11:49.759Z,999.93
2019-03-16T06:12:49.754Z,999.91
2019-03-16T06:13:49.737Z,999.98
2019-03-16T06:14:49.766Z,1000.00
2019-03-16T06:15:49.716Z,999.96
2019-03-16T06:16:49.700Z,999.97
2019-03-16T06:17:49.698Z,999.95
2019-03-16T06:18:49.685Z,1000.01
2019-03-16T06:19:49.685Z,999.97
2019-03-16T06:20:49.685Z,999.98
2019-03-16T06:21:49.649Z,1000.08
2019-03-16T06:22:49.643Z,1000.03
2019-03-16T06:23:49.713Z,999.99
2019-03-16T06:24:49.627Z,1000.05
2019-03-16T06:25:49.630Z,1000.01
2019-03-16T06:26:49.601Z,1000.09
2019-03-16T06:27:49.581Z,1000.11
2019-03-16T06:28:49.570Z,1000.05
2019-03-16T06:29:49.589Z,1000.14
2019-03-16T06:30:49.604Z,1000.21
2019-03-16T06:31:49.543Z,1000.08
2019-03-16T06:32:49.540Z,1000.22
2019-03-16T06:33:49.615Z,1000.19
2019-03-16T06:34:49.510Z,1000.21
2019-03-16T06:35:49.511Z,1000.23
2019-03-16T06:36:49.545Z,1000.25
2019-03-16T06:37:49.482Z,1000.24
2019-03-16T06:38:49.471Z,1000.22
2019-03-16T06:39:49.490Z,1000.25
2019-03-16T06:40:49.460Z,1000.25
2019-03-16T06:41:49.454Z,1000.25
2019-03-16T06:42:49.424Z,1000.32
2019-03-16T06:43:49.416Z,1000.24
2019-03-16T06:44:49.408Z,1000.29
2019-03-16T06:45:49.391Z,1000.32
2019-03-16T06:46:49.403Z,1000.29
2019-03-16T06:47:49.368Z,1000.34
2019-03-16T06:48:49.378Z,1000.15
2019-03-16T06:49:49.358Z,1000.33
2019-03-16T06:50:49.339Z,1000.32
2019-03-16T06:51:49.339Z,1000.37
2019-03-16T06:52:49.321Z,1000.39
2019-03-16T06:53:49.328Z,1000.37
2019-03-16T06:54:49.292Z,1000.42
2019-03-16T06:55:49.281Z,1000.38
2019-03-16T06:56:49.294Z,1000.52
2019-03-16T06:57:49.329Z,1000.40
2019-03-16T06:58:49.257Z,1000.38
2019-03-16T06:59:49.266Z,1000.46
2019-03-16T07:00:49.228Z,1000.49
2019-03-16T07:01:49.222Z,1000.48
2019-03-16T07:02:49.219Z,1000.40
2019-03-16T07:03:49.265Z,1000.55
2019-03-16T07:04:49.220Z,1000.40
2019-03-16T07:05:49.175Z,1000.42
2019-03-16T07:06:49.164Z,1000.51
2019-03-16T07:07:49.161Z,1000.51
2019-03-16T07:08:49.143Z,1000.49
2019-03-16T07:09:49.139Z,1000.46
2019-03-16T07:10:49.149Z,1000.54
2019-03-16T07:11:49.128Z,1000.53
2019-03-16T07:12:49.106Z,1000.45
2019-03-16T07:13:49.108Z,1000.53
2019-03-16T07:14:49.098Z,1000.60
2019-03-16T07:15:49.101Z,1000.50
2019-03-16T07:17:01.520Z,1000.53
2019-03-16T07:17:50.046Z,1000.54
2019-03-16T07:18:58.263Z,1000.59
2019-03-16T07:19:50.044Z,1000.54
2019-03-16T07:20:49.018Z,1000.56
2019-03-16T07:21:49.010Z,1000.56
2019-03-16T07:22:49.001Z,1000.57
2019-03-16T07:23:49.011Z,1000.58
2019-03-16T07:24:51.551Z,1000.68
2019-03-16T07:25:48.964Z,1000.70
2019-03-16T07:26:48.980Z,1000.68
2019-03-16T07:27:48.948Z,1000.57
2019-03-16T07:28:48.930Z,1000.64
2019-03-16T07:29:48.922Z,1000.64
2019-03-16T07:30:48.924Z,1000.76
2019-03-16T07:31:48.898Z,1000.66
2019-03-16T07:32:48.927Z,1000.73
2019-03-16T07:33:48.881Z,1000.64
2019-03-16T07:34:48.875Z,1000.68
2019-03-16T07:35:48.863Z,1000.72
2019-03-16T07:36:48.849Z,1000.70
2019-03-16T07:37:48.844Z,1000.79
2019-03-16T07:38:48.857Z,1000.76
2019-03-16T07:39:48.815Z,1000.80
2019-03-16T07:40:48.800Z,1000.74
2019-03-16T07:41:48.796Z,1000.74
2019-03-16T07:42:48.790Z,1000.78
2019-03-16T07:43:48.796Z,1000.82
2019-03-16T07:44:48.769Z,1000.76
2019-03-16T07:45:48.760Z,1000.82
2019-03-16T07:46:48.744Z,1000.88
2019-03-16T07:47:48.734Z,1000.83
2019-03-16T07:48:48.753Z,1000.84
2019-03-16T07:49:48.706Z,1000.92
2019-03-16T07:50:48.699Z,1000.97
2019-03-16T07:51:48.689Z,1000.94
2019-03-16T07:52:48.675Z,1000.88
2019-03-16T07:53:48.671Z,1000.97
2019-03-16T07:54:48.679Z,1001.08
2019-03-16T07:55:48.650Z,1001.05
2019-03-16T07:56:48.665Z,1000.92
2019-03-16T07:57:48.624Z,1000.96
2019-03-16T07:58:48.610Z,1000.93
2019-03-16T07:59:48.662Z,1001.09
2019-03-16T08:00:48.594Z,1001.02
2019-03-16T08:01:48.584Z,1000.96
2019-03-16T08:02:48.573Z,1000.96
2019-03-16T08:03:48.557Z,1001.01
2019-03-16T08:04:48.550Z,1000.98
2019-03-16T08:05:48.560Z,1000.98
2019-03-16T08:06:48.534Z,1001.01
2019-03-16T08:07:48.664Z,1001.06
2019-03-16T08:08:48.556Z,1001.03
2019-03-16T08:09:48.527Z,1001.06
2019-03-16T08:10:48.481Z,1001.08
2019-03-16T08:11:48.468Z,1001.01
2019-03-16T08:12:48.461Z,1000.98
2019-03-16T08:13:48.450Z,1001.00
2019-03-16T08:14:48.440Z,1000.97
2019-03-16T08:15:48.474Z,1000.93
2019-03-16T08:16:48.420Z,1000.99
2019-03-16T08:17:48.403Z,1000.99
2019-03-16T08:18:48.390Z,1001.01
2019-03-16T08:19:48.390Z,1001.05
2019-03-16T08:20:48.400Z,1001.05
2019-03-16T08:21:48.396Z,1001.04
2019-03-16T08:22:48.353Z,1001.13
2019-03-16T08:23:48.340Z,1001.14
2019-03-16T08:24:48.328Z,1001.18
2019-03-16T08:25:48.331Z,1001.22
2019-03-16T08:26:48.309Z,1001.25
2019-03-16T08:27:53.942Z,1001.41
2019-03-16T08:28:49.302Z,1001.28
2019-03-16T08:29:48.271Z,1001.25
2019-03-16T08:30:48.284Z,1001.35
2019-03-16T08:31:48.265Z,1001.30
2019-03-16T08:32:48.266Z,1001.33
2019-03-16T08:33:48.232Z,1001.24
2019-03-16T08:34:48.224Z,1001.29
2019-03-16T08:35:48.226Z,1001.44
2019-03-16T08:36:48.197Z,1001.34
2019-03-16T08:37:48.200Z,1001.31
2019-03-16T08:38:48.179Z,1001.31
2019-03-16T08:39:48.190Z,1001.38
2019-03-16T08:40:48.181Z,1001.33
2019-03-16T08:41:48.140Z,1001.37
2019-03-16T08:42:48.153Z,1001.36
2019-03-16T08:43:48.122Z,1001.41
2019-03-16T08:44:48.107Z,1001.38
2019-03-16T08:45:48.166Z,1001.30
2019-03-16T08:46:48.117Z,1001.41
2019-03-16T08:47:48.083Z,1001.30
2019-03-16T08:48:48.095Z,1001.39
2019-03-16T08:49:48.055Z,1001.32
2019-03-16T08:50:48.040Z,1001.23
2019-03-16T08:51:48.101Z,1001.36
2019-03-16T08:52:48.029Z,1001.37
2019-03-16T08:53:48.019Z,1001.34
2019-03-16T08:54:47.996Z,1001.37
2019-03-16T08:55:48.020Z,1001.50
2019-03-16T08:56:47.976Z,1001.43
2019-03-16T08:57:48.003Z,1001.43
2019-03-16T08:58:47.960Z,1001.47
2019-03-16T08:59:47.959Z,1001.42
2019-03-16T09:00:47.938Z,1001.36
2019-03-16T09:01:47.922Z,1001.37
2019-03-16T09:02:47.909Z,1001.39
2019-03-16T09:03:47.935Z,1001.32
2019-03-16T09:04:47.889Z,1001.46
2019-03-16T09:05:47.884Z,1001.40
2019-03-16T09:06:47.871Z,1001.35
2019-03-16T09:07:47.855Z,1001.31
2019-03-16T09:08:47.846Z,1001.32
2019-03-16T09:09:47.861Z,1001.35
2019-03-16T09:10:47.838Z,1001.40
2019-03-16T09:11:47.822Z,1001.33
2019-03-16T09:12:54.938Z,1001.38
2019-03-16T09:13:48.791Z,1001.32
2019-03-16T09:14:47.801Z,1001.34
2019-03-16T09:15:47.773Z,1001.37
2019-03-16T09:16:47.765Z,1001.31
2019-03-16T09:17:47.781Z,1001.39
2019-03-16T09:18:47.747Z,1001.40
2019-03-16T09:19:47.763Z,1001.27
2019-03-16T09:20:47.725Z,1001.35
2019-03-16T09:21:47.708Z,1001.32
2019-03-16T09:22:47.697Z,1001.28
2019-03-16T09:23:47.689Z,1001.34
2019-03-16T09:24:47.683Z,1001.36
2019-03-16T09:25:47.710Z,1001.40
2019-03-16T09:26:47.651Z,1001.29
2019-03-16T09:27:47.647Z,1001.31
2019-03-16T09:28:59.352Z,1001.37
2019-03-16T09:29:48.623Z,1001.43
2019-03-16T09:30:47.616Z,1001.41
2019-03-16T09:31:47.603Z,1001.44
2019-03-16T09:32:47.615Z,1001.47
2019-03-16T09:33:47.598Z,1001.46
2019-03-16T09:34:47.568Z,1001.52
2019-03-16T09:35:47.580Z,1001.54
2019-03-16T09:36:47.566Z,1001.52
2019-03-16T09:37:47.563Z,1001.41
2019-03-16T09:38:47.555Z,1001.47
2019-03-16T09:39:47.512Z,1001.51
2019-03-16T09:40:47.503Z,1001.56
2019-03-16T09:41:47.497Z,1001.44
2019-03-16T09:42:47.491Z,1001.45
2019-03-16T09:43:47.510Z,1001.47
2019-03-16T09:44:47.464Z,1001.47
2019-03-16T09:45:47.451Z,1001.51
2019-03-16T09:46:47.436Z,1001.59
2019-03-16T09:47:47.426Z,1001.54
2019-03-16T09:48:47.415Z,1001.57
2019-03-16T09:49:47.445Z,1001.61
2019-03-16T09:50:47.409Z,1001.65
2019-03-16T09:51:47.389Z,1001.65
2019-03-16T09:52:47.380Z,1001.65
2019-03-16T09:53:47.360Z,1001.60
2019-03-16T09:54:47.377Z,1001.57
2019-03-16T09:55:47.347Z,1001.58
2019-03-16T09:57:00.253Z,1001.65
2019-03-16T09:57:48.318Z,1001.68
2019-03-16T09:58:47.307Z,1001.59
2019-03-16T09:59:47.329Z,1001.58
2019-03-16T10:00:47.285Z,1001.60
2019-03-16T10:01:47.281Z,1001.66
2019-03-16T10:02:47.275Z,1001.58
2019-03-16T10:03:47.264Z,1001.58
2019-03-16T10:04:47.251Z,1001.56
2019-03-16T10:05:47.262Z,1001.60
2019-03-16T10:06:47.223Z,1001.66
2019-03-16T10:07:47.211Z,1001.70
2019-03-16T10:08:47.204Z,1001.77
2019-03-16T10:09:47.200Z,1001.69
2019-03-16T10:10:47.193Z,1001.62
2019-03-16T10:11:47.192Z,1001.62
2019-03-16T10:12:47.160Z,1001.57
2019-03-16T10:13:47.158Z,1001.54
2019-03-16T10:14:47.154Z,1001.56
2019-03-16T10:15:47.131Z,1001.51
2019-03-16T10:16:47.146Z,1001.56
2019-03-16T10:17:47.104Z,1001.59
2019-03-16T10:18:47.093Z,1001.54
2019-03-16T10:19:47.081Z,1001.57
2019-03-16T10:20:47.074Z,1001.57
2019-03-16T10:21:47.970Z,1001.59
2019-03-16T10:22:47.058Z,1001.55
2019-03-16T10:23:47.048Z,1001.50
2019-03-16T10:24:47.036Z,1001.40
2019-03-16T10:25:47.019Z,1001.40
2019-03-16T10:26:47.042Z,1001.43
2019-03-16T10:27:47.030Z,1001.41
2019-03-16T10:28:46.994Z,1001.43
2019-03-16T10:29:46.988Z,1001.41
2019-03-16T10:30:46.970Z,1001.39
2019-03-16T10:31:47.010Z,1001.42
2019-03-16T10:32:46.975Z,1001.53
2019-03-16T10:33:46.953Z,1001.51
2019-03-16T10:34:46.965Z,1001.54
2019-03-16T10:35:46.916Z,1001.49
2019-03-16T10:36:46.913Z,1001.53
2019-03-16T10:37:46.903Z,1001.47
2019-03-16T10:38:46.907Z,1001.46
2019-03-16T10:39:46.868Z,1001.52
2019-03-16T10:40:46.857Z,1001.48
2019-03-16T10:41:46.855Z,1001.49
2019-03-16T10:42:46.845Z,1001.55
2019-03-16T10:43:46.860Z,1001.59
2019-03-16T10:44:46.825Z,1001.71
2019-03-16T10:45:46.818Z,1001.64
2019-03-16T10:46:46.798Z,1001.62
2019-03-16T10:47:46.810Z,1001.65
2019-03-16T10:48:46.781Z,1001.63
2019-03-16T10:49:46.792Z,1001.58
2019-03-16T10:50:46.758Z,1001.56
2019-03-16T10:51:46.742Z,1001.63
2019-03-16T10:52:46.734Z,1001.67
2019-03-16T10:53:46.726Z,1001.57
2019-03-16T10:54:46.718Z,1001.65
2019-03-16T10:55:46.737Z,1001.55
2019-03-16T10:56:46.696Z,1001.66
2019-03-16T10:57:46.676Z,1001.61
2019-03-16T10:58:56.157Z,1001.78
2019-03-16T10:59:47.684Z,1001.61
2019-03-16T11:00:46.652Z,1001.67
2019-03-16T11:01:46.635Z,1001.63
2019-03-16T11:02:46.623Z,1001.63
2019-03-16T11:03:46.612Z,1001.69
2019-03-16T11:04:46.621Z,1001.58
2019-03-16T11:05:46.628Z,1001.66
2019-03-16T11:06:46.589Z,1001.68
2019-03-16T11:07:46.576Z,1001.61
2019-03-16T11:08:46.580Z,1001.57
2019-03-16T11:09:46.547Z,1001.58
2019-03-16T11:10:46.535Z,1001.63
2019-03-16T11:11:46.550Z,1001.59
2019-03-16T11:12:46.517Z,1001.58
2019-03-16T11:13:46.532Z,1001.57
2019-03-16T11:14:46.521Z,1001.49
2019-03-16T11:15:46.486Z,1001.49
2019-03-16T11:16:46.472Z,1001.79
2019-03-16T11:17:46.467Z,1001.48
2019-03-16T11:18:46.490Z,1001.67
2019-03-16T11:19:46.454Z,1001.36
2019-03-16T11:20:46.435Z,1001.41
2019-03-16T11:21:46.424Z,1001.43
2019-03-16T11:22:46.415Z,1001.50
2019-03-16T11:23:46.431Z,1001.40
2019-03-16T11:24:46.389Z,1001.63
2019-03-16T11:25:46.383Z,1001.56
2019-03-16T11:26:46.369Z,1001.49
2019-03-16T11:27:46.362Z,1001.47
2019-03-16T11:28:46.348Z,1001.49
2019-03-16T11:29:46.355Z,1001.42
2019-03-16T11:30:46.345Z,1001.44
2019-03-16T11:31:46.316Z,1001.39
2019-03-16T11:32:46.311Z,1001.51
2019-03-16T11:33:48.431Z,1001.56
2019-03-16T11:34:46.279Z,1001.55
2019-03-16T11:35:46.295Z,1001.58
2019-03-16T11:36:46.260Z,1001.93
2019-03-16T11:37:46.251Z,1001.73
2019-03-16T11:38:46.241Z,1001.74
2019-03-16T11:39:46.230Z,1001.61
2019-03-16T11:40:46.219Z,1001.64
2019-03-16T11:41:46.240Z,1001.65
2019-03-16T11:42:46.196Z,1001.58
2019-03-16T11:43:46.181Z,1001.58
2019-03-16T11:44:46.173Z,1001.51
2019-03-16T11:45:46.167Z,1001.61
2019-03-16T11:46:46.166Z,1001.68
2019-03-16T11:47:46.276Z,1001.57
2019-03-16T11:48:46.131Z,1001.52
2019-03-16T11:49:46.123Z,1001.50
2019-03-16T11:50:48.809Z,1001.44
2019-03-16T11:51:46.104Z,1001.48
2019-03-16T11:52:46.121Z,1001.57
2019-03-16T11:53:46.080Z,1001.55
2019-03-16T11:54:46.065Z,1001.57
2019-03-16T11:55:46.054Z,1001.53
2019-03-16T11:56:46.047Z,1001.61
2019-03-16T11:57:46.067Z,1001.67
2019-03-16T11:58:46.033Z,1001.69
2019-03-16T11:59:46.020Z,1001.71
2019-03-16T12:00:46.043Z,1001.66
2019-03-16T12:01:45.994Z,1001.59
2019-03-16T12:02:46.002Z,1001.60
2019-03-16T12:03:45.977Z,1001.61
2019-03-16T12:04:45.966Z,1001.63
2019-03-16T12:06:42.063Z,1001.65
2019-03-16T12:07:42.068Z,1001.63
2019-03-16T12:08:42.056Z,1001.75
2019-03-16T12:09:42.025Z,1001.72
2019-03-16T12:10:42.009Z,1001.70
2019-03-16T12:11:42.012Z,1001.73
2019-03-16T12:12:42.177Z,1001.74
2019-03-16T12:13:43.945Z,1001.71
2019-03-16T12:14:41.977Z,1001.75
2019-03-16T12:15:41.961Z,1001.71
2019-03-16T12:16:41.946Z,1001.73
2019-03-16T12:17:41.965Z,1001.71
2019-03-16T12:18:41.928Z,1001.67